Castine, ME

1:43 AM EDT on April 23, 2017 (GMT -0400)
Maine Maritime Academy | | Change Station

Elev 0 ft 44.39 °N, 68.80 °W | Updated 1 second ago

Overcast
Overcast
37.4 °F
Feels Like 35 °F
N
3.7
Wind Variable Wind from NNW
Gusts 4.0 mph

Today
High -- | Low -- °F
--% Chance of Precip.
Yesterday
High -- | Low -- °F
Precip. -- in
Pressure 29.94 in
Visibility 10.0 miles
Clouds Few 600 ft
Overcast 1200 ft
Windchill 35 °F
Dew Point 37 °F
Humidity 98%
Rainfall 0.00 in
Snow Depth Not available.
5:37 AM 7:29 PM
Waning Crescent, 14% visible
SPECI KBHB 230523Z AUTO 00000KT 10SM FEW006 OVC012 02/02 A2994 RMK AO2 FZRANO
Pressure 29.94 in
Visibility 10.0 miles
Clouds Few 600 ft
Overcast 1200 ft
Windchill 35 °F
Dew Point 37 °F
Humidity 98%
Rainfall 0.00 in
Snow Depth Not available.
5:37 AM 7:29 PM
Waning Crescent, 14% visible
SPECI KBHB 230523Z AUTO 00000KT 10SM FEW006 OVC012 02/02 A2994 RMK AO2 FZRANO

Get Severe Weather Alerts

Thanks for signing up!

Be on the lookout for a verification email in your inbox.

You'll start receiving the daily forecast at 8 AM.

×

10-Day Weather Forecast

Almanac

Astronomy

Apr. 23, 2017 Rise Set
Actual Time
Civil Twilight
Nautical Twilight
Astronomical Twilight
Moon
Length of Visible Light
Length of Day
Tomorrow will be .
, % of the Moon is Illuminated

Today's Extremes

State Highs State Lows

Community

WunderPhotos

WunderBlog® & News

Nearby

Air Quality

  Air Quality AQ Index Pollutant
Not available.

Snow Depth

Station Depth Elevation

Earthquake Activity

City Distance Mag. Time & Date
Minimum magnitude displayed is 2.5.

Coastal Water Temperatures

Place Temperature

Stations

Nearby Weather Stations

Station Location Temp. Windchill Dew Point Humidity Wind Precip. Elev Updated Type
                   

Watches & Warnings

There are currently no watches in effect.